Time;durP1;ratioP1;P1;durP2;ratioP2;P2;SDS_P1;SDS_P2;PMS_P1;PMS_P2;Temp;Humidity;BMP_temperature;BMP_pressure;BME280_temperature;BME280_humidity;BME280_pressure;Samples;Min_cycle;Max_cycle;Signal;HPM_P1;HPM_P2
2022/12/30 00:01:39;;;;;;;9.80;1.08;;;;;;;;;;6072229;23;20057;-67
2022/12/30 00:04:07;;;;;;;10.43;0.93;;;;;;;;;;6064186;23;20022;-67
2022/12/30 00:06:34;;;;;;;11.43;1.00;;;;;;;;;;6073793;23;20664;-65
2022/12/30 00:09:02;;;;;;;7.95;0.73;;;;;;;;;;6059387;23;20420;-67
2022/12/30 00:11:30;;;;;;;8.75;0.90;;;;;;;;;;6057749;23;20014;-68
2022/12/30 00:33:47;;;;;;;15.48;1.95;;;;;;;;;;6067898;23;20018;-68
2022/12/30 00:36:15;;;;;;;17.77;1.48;;;;;;;;;;6068692;23;20042;-67
2022/12/30 00:38:42;;;;;;;10.77;1.13;;;;;;;;;;6071188;23;20048;-68
2022/12/30 00:43:55;;;;;;;10.07;0.93;;;;;;;;;;6070723;23;20331;-67
2022/12/30 00:46:24;;;;;;;12.65;0.90;;;;;;;;;;6063073;23;20025;-68
2022/12/30 00:57:08;;;;;;;10.00;0.90;;;;;;;;;;6063091;23;20023;-68
2022/12/30 00:59:36;;;;;;;11.02;1.33;;;;;;;;;;6069852;23;20495;-68
2022/12/30 01:02:03;;;;;;;12.02;0.95;;;;;;;;;;6065233;23;20403;-68
2022/12/30 01:04:34;;;;;;;11.10;1.35;;;;;;;;;;6072676;23;20046;-68
2022/12/30 01:07:01;;;;;;;14.73;1.08;;;;;;;;;;6063002;23;20081;-68
2022/12/30 01:09:29;;;;;;;10.60;1.00;;;;;;;;;;6073316;23;20503;-68
2022/12/30 01:12:08;;;;;;;13.25;0.93;;;;;;;;;;6056585;23;20053;-67
2022/12/30 01:14:37;;;;;;;11.65;1.25;;;;;;;;;;6072119;23;20018;-68
2022/12/30 01:17:04;;;;;;;12.02;0.65;;;;;;;;;;6063776;23;20049;-68
2022/12/30 01:19:34;;;;;;;11.15;1.10;;;;;;;;;;6074974;23;20683;-67
2022/12/30 01:22:02;;;;;;;13.30;0.77;;;;;;;;;;6062726;23;20026;-68
2022/12/30 01:24:30;;;;;;;13.48;1.77;;;;;;;;;;6071971;23;20587;-67
2022/12/30 01:26:57;;;;;;;11.63;0.75;;;;;;;;;;6065930;23;20062;-67
2022/12/30 01:29:30;;;;;;;13.50;0.90;;;;;;;;;;6070785;23;20458;-68
2022/12/30 01:31:58;;;;;;;9.82;0.82;;;;;;;;;;6071852;23;20049;-68
2022/12/30 01:34:26;;;;;;;14.80;1.10;;;;;;;;;;6067571;23;20501;-68
2022/12/30 01:36:55;;;;;;;14.82;1.02;;;;;;;;;;6065918;23;20056;-61
2022/12/30 01:39:24;;;;;;;17.73;1.17;;;;;;;;;;6062004;23;20015;-69
2022/12/30 01:41:53;;;;;;;10.15;0.88;;;;;;;;;;6079316;23;20015;-68
2022/12/30 01:44:46;;;;;;;12.40;1.15;;;;;;;;;;6046786;23;20022;-69
2022/12/30 01:47:16;;;;;;;10.93;1.17;;;;;;;;;;6071767;23;20061;-60
2022/12/30 01:49:48;;;;;;;12.75;0.95;;;;;;;;;;6071792;23;20022;-68
2022/12/30 01:52:19;;;;;;;11.40;1.25;;;;;;;;;;6062736;23;20458;-68
2022/12/30 01:54:48;;;;;;;12.82;1.33;;;;;;;;;;6070518;23;20381;-69
2022/12/30 01:57:17;;;;;;;14.20;0.65;;;;;;;;;;6061395;23;20729;-68
2022/12/30 01:59:45;;;;;;;12.87;1.13;;;;;;;;;;6070226;23;20073;-68
2022/12/30 02:02:12;;;;;;;14.88;1.05;;;;;;;;;;6062164;23;20014;-68
2022/12/30 02:04:40;;;;;;;17.58;0.90;;;;;;;;;;6069637;23;20045;-68
2022/12/30 02:07:10;;;;;;;14.75;1.02;;;;;;;;;;6063175;23;20089;-69
2022/12/30 02:09:39;;;;;;;13.65;0.90;;;;;;;;;;6073500;23;20118;-68
2022/12/30 02:12:07;;;;;;;7.00;0.70;;;;;;;;;;6055690;23;20514;-67
2022/12/30 02:14:39;;;;;;;13.25;1.08;;;;;;;;;;6072567;23;20018;-68
2022/12/30 02:17:14;;;;;;;10.23;0.70;;;;;;;;;;6063702;23;20045;-68
2022/12/30 02:19:59;;;;;;;17.92;0.88;;;;;;;;;;6073587;23;20089;-68
2022/12/30 02:22:31;;;;;;;8.82;0.75;;;;;;;;;;6071477;23;20097;-68
2022/12/30 02:25:21;;;;;;;10.27;0.50;;;;;;;;;;6060770;23;20097;-68
2022/12/30 02:28:07;;;;;;;15.50;1.20;;;;;;;;;;6071317;23;20018;-68
2022/12/30 02:30:40;;;;;;;19.05;1.67;;;;;;;;;;6072395;23;20033;-62
2022/12/30 02:33:17;;;;;;;12.63;0.85;;;;;;;;;;6063952;23;20022;-68
2022/12/30 02:35:50;;;;;;;13.85;0.90;;;;;;;;;;6067515;23;20062;-68
2022/12/30 02:38:22;;;;;;;12.70;1.33;;;;;;;;;;6070452;23;20092;-68
2022/12/30 02:46:39;;;;;;;13.20;1.20;;;;;;;;;;6022773;23;20451;-67
2022/12/30 02:49:10;;;;;;;17.42;1.27;;;;;;;;;;6060210;23;20478;-67
2022/12/30 02:54:24;;;;;;;10.90;1.13;;;;;;;;;;6054043;23;20423;-67
2022/12/30 02:56:52;;;;;;;10.02;1.00;;;;;;;;;;6069693;23;20023;-67
2022/12/30 03:05:12;;;;;;;14.17;1.20;;;;;;;;;;6073473;23;20029;-66
2022/12/30 03:07:44;;;;;;;15.00;0.93;;;;;;;;;;6053764;23;20098;-67
2022/12/30 03:13:04;;;;;;;14.38;1.05;;;;;;;;;;6076789;23;20097;-67
2022/12/30 03:15:36;;;;;;;9.05;0.90;;;;;;;;;;6063920;23;20066;-66
2022/12/30 03:18:04;;;;;;;16.87;0.90;;;;;;;;;;6071669;23;20014;-67
2022/12/30 03:20:33;;;;;;;11.65;1.00;;;;;;;;;;6064715;23;20474;-66
2022/12/30 03:28:33;;;;;;;11.32;0.93;;;;;;;;;;6065667;23;20018;-66
2022/12/30 03:31:03;;;;;;;10.90;0.80;;;;;;;;;;6069613;23;20018;-67
2022/12/30 03:33:32;;;;;;;9.88;1.38;;;;;;;;;;6071696;23;20018;-67
2022/12/30 03:36:05;;;;;;;13.30;1.20;;;;;;;;;;6064988;23;20061;-66
2022/12/30 03:38:35;;;;;;;12.38;1.63;;;;;;;;;;6070985;23;20029;-67
2022/12/30 03:41:04;;;;;;;19.70;1.27;;;;;;;;;;6058559;23;20038;-67
2022/12/30 03:43:32;;;;;;;15.23;1.07;;;;;;;;;;6044415;23;20053;-68
2022/12/30 03:46:00;;;;;;;7.30;0.73;;;;;;;;;;6066931;23;20069;-67
2022/12/30 03:48:28;;;;;;;20.33;1.10;;;;;;;;;;6072716;23;20025;-67
2022/12/30 03:50:56;;;;;;;14.27;1.00;;;;;;;;;;6045760;23;20018;-67
2022/12/30 03:53:25;;;;;;;13.43;0.90;;;;;;;;;;6066606;23;20067;-67
2022/12/30 03:55:53;;;;;;;16.47;1.00;;;;;;;;;;6070270;23;20022;-67
2022/12/30 03:58:20;;;;;;;16.23;1.30;;;;;;;;;;6070035;23;20015;-67
2022/12/30 04:00:49;;;;;;;20.17;1.58;;;;;;;;;;6070321;23;20438;-67
2022/12/30 04:03:17;;;;;;;12.40;0.80;;;;;;;;;;6046605;23;20038;-66
2022/12/30 04:05:45;;;;;;;7.57;0.68;;;;;;;;;;6078736;23;20022;-66
2022/12/30 04:08:12;;;;;;;12.17;1.33;;;;;;;;;;6059821;23;20528;-67
2022/12/30 04:10:43;;;;;;;9.45;0.77;;;;;;;;;;6071330;23;20026;-68
2022/12/30 04:13:10;;;;;;;14.30;0.88;;;;;;;;;;6051712;23;20446;-68
2022/12/30 04:15:38;;;;;;;11.70;0.95;;;;;;;;;;6068528;23;20022;-67
2022/12/30 04:18:06;;;;;;;7.63;0.47;;;;;;;;;;6070831;23;20101;-68
2022/12/30 04:20:33;;;;;;;7.23;1.27;;;;;;;;;;6069398;23;20109;-68
2022/12/30 04:23:01;;;;;;;8.10;1.00;;;;;;;;;;6042881;23;20011;-68
2022/12/30 04:25:28;;;;;;;18.15;0.90;;;;;;;;;;6034656;23;21016;-68
2022/12/30 04:27:57;;;;;;;15.70;1.10;;;;;;;;;;6046012;23;20478;-68
2022/12/30 04:30:25;;;;;;;6.35;0.90;;;;;;;;;;6073708;23;20046;-68
2022/12/30 04:32:52;;;;;;;11.23;0.90;;;;;;;;;;6068908;23;20026;-67
2022/12/30 04:35:20;;;;;;;9.65;0.70;;;;;;;;;;6057382;23;20276;-68
2022/12/30 04:37:48;;;;;;;17.13;1.45;;;;;;;;;;6066607;23;20328;-68
2022/12/30 04:40:15;;;;;;;7.30;0.80;;;;;;;;;;6070622;23;20500;-68
2022/12/30 04:42:43;;;;;;;8.25;0.85;;;;;;;;;;6060719;23;20548;-68
2022/12/30 04:45:12;;;;;;;12.23;1.50;;;;;;;;;;6042270;23;20050;-68
2022/12/30 04:47:40;;;;;;;13.07;1.60;;;;;;;;;;6073793;23;20402;-68
2022/12/30 04:50:10;;;;;;;11.32;1.08;;;;;;;;;;6067437;23;20066;-68
2022/12/30 04:52:38;;;;;;;13.27;1.27;;;;;;;;;;6062332;23;20137;-68
2022/12/30 04:55:06;;;;;;;15.88;1.08;;;;;;;;;;6068695;23;20049;-68
2022/12/30 04:57:33;;;;;;;9.93;0.90;;;;;;;;;;6060704;23;20446;-63
2022/12/30 05:00:03;;;;;;;16.50;1.20;;;;;;;;;;6056646;23;20063;-67
2022/12/30 05:02:32;;;;;;;11.02;1.30;;;;;;;;;;6076043;23;20026;-68
2022/12/30 05:05:00;;;;;;;14.13;1.13;;;;;;;;;;6068443;23;20022;-68
2022/12/30 05:07:28;;;;;;;14.25;1.23;;;;;;;;;;6068828;23;20018;-68
2022/12/30 05:09:58;;;;;;;17.80;1.40;;;;;;;;;;6045284;23;20386;-68
2022/12/30 05:12:25;;;;;;;11.18;1.05;;;;;;;;;;6065632;23;20018;-68
2022/12/30 05:14:53;;;;;;;17.48;1.13;;;;;;;;;;6065127;23;20026;-68
2022/12/30 05:17:21;;;;;;;13.63;1.02;;;;;;;;;;6073687;23;20042;-68
2022/12/30 05:19:49;;;;;;;10.40;0.80;;;;;;;;;;6063401;23;20527;-68
2022/12/30 05:22:17;;;;;;;12.80;1.03;;;;;;;;;;6070964;23;20289;-68
2022/12/30 05:27:39;;;;;;;5.72;0.95;;;;;;;;;;6000008;23;20469;-68
2022/12/30 05:30:07;;;;;;;9.45;1.45;;;;;;;;;;6068035;23;20023;-68
2022/12/30 05:32:35;;;;;;;9.55;1.17;;;;;;;;;;6069233;23;20014;-68
2022/12/30 05:35:04;;;;;;;7.03;0.80;;;;;;;;;;6063654;23;20626;-68
2022/12/30 05:37:32;;;;;;;8.45;0.98;;;;;;;;;;6066602;23;20369;-68
2022/12/30 05:39:59;;;;;;;15.43;1.35;;;;;;;;;;6072442;23;20042;-68
2022/12/30 05:42:27;;;;;;;17.52;1.50;;;;;;;;;;6064483;23;20042;-68
2022/12/30 05:44:55;;;;;;;10.05;1.60;;;;;;;;;;6065153;23;20033;-67
2022/12/30 05:47:22;;;;;;;9.30;1.20;;;;;;;;;;6064340;23;20454;-68
2022/12/30 05:49:50;;;;;;;9.90;1.02;;;;;;;;;;6074106;23;20046;-68
2022/12/30 05:52:19;;;;;;;12.77;1.02;;;;;;;;;;6062270;23;20014;-68
2022/12/30 05:54:47;;;;;;;11.27;1.25;;;;;;;;;;6040677;23;20053;-68
2022/12/30 05:57:14;;;;;;;18.38;1.67;;;;;;;;;;6072129;23;20355;-65
2022/12/30 05:59:42;;;;;;;12.73;1.47;;;;;;;;;;6053255;23;20689;-68
2022/12/30 06:02:09;;;;;;;12.15;1.08;;;;;;;;;;6076763;23;20014;-67
2022/12/30 06:04:37;;;;;;;11.13;1.42;;;;;;;;;;6064681;23;20540;-68
2022/12/30 06:07:05;;;;;;;8.30;0.88;;;;;;;;;;6061687;23;20442;-67
2022/12/30 06:09:34;;;;;;;10.50;1.58;;;;;;;;;;6062805;23;20049;-68
2022/12/30 06:12:02;;;;;;;19.63;2.00;;;;;;;;;;6046237;23;20031;-67
2022/12/30 06:14:32;;;;;;;11.63;1.05;;;;;;;;;;6070716;23;20038;-67
2022/12/30 06:17:03;;;;;;;7.07;0.70;;;;;;;;;;6063093;23;20113;-68
2022/12/30 06:19:30;;;;;;;15.98;1.73;;;;;;;;;;6072919;23;20430;-68
2022/12/30 06:21:58;;;;;;;13.55;1.35;;;;;;;;;;6065472;23;20058;-68
2022/12/30 06:24:27;;;;;;;11.87;1.37;;;;;;;;;;6069205;23;20045;-67
2022/12/30 06:26:56;;;;;;;10.98;1.02;;;;;;;;;;6072528;23;20026;-67
2022/12/30 06:29:23;;;;;;;14.10;1.08;;;;;;;;;;6060717;23;20014;-68
2022/12/30 06:31:51;;;;;;;10.65;1.05;;;;;;;;;;6070200;23;20018;-68
2022/12/30 06:34:19;;;;;;;13.40;1.50;;;;;;;;;;6065116;23;20526;-68
2022/12/30 06:36:46;;;;;;;11.77;1.20;;;;;;;;;;6077412;23;20018;-69
2022/12/30 06:39:14;;;;;;;11.45;0.82;;;;;;;;;;6061679;23;20049;-69
2022/12/30 06:41:41;;;;;;;13.20;1.40;;;;;;;;;;6044607;23;20221;-69
2022/12/30 06:44:10;;;;;;;13.35;1.35;;;;;;;;;;6059456;23;20332;-68
2022/12/30 06:46:38;;;;;;;13.05;1.48;;;;;;;;;;6068965;23;20089;-68
2022/12/30 06:49:05;;;;;;;7.90;0.93;;;;;;;;;;6064252;23;20026;-68
2022/12/30 06:51:35;;;;;;;14.07;1.50;;;;;;;;;;6070613;23;20014;-69
2022/12/30 06:54:03;;;;;;;10.00;0.90;;;;;;;;;;6076042;23;20018;-68
2022/12/30 06:56:30;;;;;;;13.48;1.70;;;;;;;;;;6063404;23;20018;-68
2022/12/30 06:58:58;;;;;;;15.43;1.70;;;;;;;;;;6069436;23;20318;-68
2022/12/30 07:01:27;;;;;;;15.50;1.70;;;;;;;;;;6063342;23;20018;-68
2022/12/30 07:03:55;;;;;;;13.25;1.42;;;;;;;;;;6069123;23;20026;-67
2022/12/30 07:06:22;;;;;;;9.93;1.40;;;;;;;;;;6064390;23;20084;-69
2022/12/30 07:08:54;;;;;;;8.57;1.73;;;;;;;;;;6071347;23;20018;-68
2022/12/30 07:11:23;;;;;;;11.32;1.60;;;;;;;;;;6072553;23;20014;-68
2022/12/30 07:13:50;;;;;;;17.90;1.17;;;;;;;;;;6062770;23;20018;-68
2022/12/30 07:16:18;;;;;;;13.05;1.50;;;;;;;;;;6071686;23;20069;-69
2022/12/30 07:18:47;;;;;;;8.38;0.60;;;;;;;;;;6062659;23;20027;-68
2022/12/30 07:21:15;;;;;;;15.30;0.95;;;;;;;;;;6046001;23;20073;-67
2022/12/30 07:23:42;;;;;;;14.13;0.88;;;;;;;;;;6064382;23;20101;-69
2022/12/30 07:26:10;;;;;;;12.57;1.00;;;;;;;;;;6070505;23;20105;-69
2022/12/30 07:28:37;;;;;;;5.28;0.50;;;;;;;;;;6062010;23;20541;-64
2022/12/30 07:31:05;;;;;;;10.77;0.93;;;;;;;;;;6066967;23;20359;-69
2022/12/30 07:33:33;;;;;;;11.13;0.70;;;;;;;;;;6065446;23;20110;-69
2022/12/30 07:36:02;;;;;;;10.05;0.80;;;;;;;;;;6068089;23;20045;-69
2022/12/30 07:38:30;;;;;;;9.00;1.10;;;;;;;;;;6070431;23;20041;-69
2022/12/30 07:40:58;;;;;;;7.75;0.80;;;;;;;;;;6061904;23;20018;-69
2022/12/30 07:43:26;;;;;;;7.30;0.80;;;;;;;;;;6070214;23;20042;-70
2022/12/30 07:45:53;;;;;;;9.93;0.93;;;;;;;;;;6067926;23;20025;-69
2022/12/30 07:48:25;;;;;;;5.65;0.50;;;;;;;;;;6073913;23;20396;-70
2022/12/30 07:50:52;;;;;;;7.47;0.57;;;;;;;;;;6075577;23;20015;-70
2022/12/30 07:53:22;;;;;;;8.93;1.05;;;;;;;;;;6038376;23;20414;-70
2022/12/30 07:55:50;;;;;;;6.15;0.60;;;;;;;;;;6070331;23;20022;-70
2022/12/30 07:58:18;;;;;;;7.63;0.80;;;;;;;;;;6070284;23;20041;-71
2022/12/30 08:00:46;;;;;;;4.70;0.50;;;;;;;;;;6073235;23;20060;-71
2022/12/30 08:03:13;;;;;;;6.03;0.83;;;;;;;;;;6063355;23;20047;-70
2022/12/30 08:05:44;;;;;;;7.13;0.60;;;;;;;;;;6070586;23;20015;-69
2022/12/30 08:08:12;;;;;;;2.67;0.43;;;;;;;;;;6074952;23;20029;-70
2022/12/30 08:10:41;;;;;;;6.57;0.70;;;;;;;;;;6062366;23;20015;-71
2022/12/30 08:13:09;;;;;;;6.68;0.50;;;;;;;;;;6070531;23;20278;-71
2022/12/30 08:15:38;;;;;;;6.30;0.50;;;;;;;;;;6066482;23;20811;-70
2022/12/30 08:18:07;;;;;;;6.32;0.77;;;;;;;;;;6072564;23;20018;-71
2022/12/30 08:20:34;;;;;;;3.45;0.40;;;;;;;;;;6069524;23;20028;-66
2022/12/30 08:23:02;;;;;;;5.00;0.70;;;;;;;;;;6063150;23;20118;-64
2022/12/30 08:25:29;;;;;;;4.25;0.40;;;;;;;;;;6071274;23;20466;-70
2022/12/30 08:27:58;;;;;;;4.43;0.40;;;;;;;;;;6049689;23;20574;-71
2022/12/30 08:30:26;;;;;;;5.97;0.60;;;;;;;;;;6070596;23;20052;-70
2022/12/30 08:32:54;;;;;;;3.80;0.30;;;;;;;;;;6034985;23;20477;-70
2022/12/30 08:35:21;;;;;;;4.68;0.50;;;;;;;;;;6075601;23;20421;-70
2022/12/30 08:37:49;;;;;;;3.97;0.52;;;;;;;;;;6067987;23;20517;-70
2022/12/30 08:40:17;;;;;;;8.43;0.40;;;;;;;;;;6071352;23;20523;-70
2022/12/30 08:42:44;;;;;;;4.55;0.25;;;;;;;;;;6063037;23;20022;-70
2022/12/30 08:45:16;;;;;;;6.30;0.50;;;;;;;;;;6064404;23;20015;-70
2022/12/30 08:47:43;;;;;;;5.85;0.40;;;;;;;;;;6072169;23;20074;-70
2022/12/30 08:50:11;;;;;;;5.35;0.47;;;;;;;;;;6063888;23;20096;-70
2022/12/30 08:52:39;;;;;;;4.10;0.57;;;;;;;;;;6070066;23;20772;-69
2022/12/30 08:55:07;;;;;;;7.40;0.43;;;;;;;;;;6067151;23;20732;-71
2022/12/30 08:57:37;;;;;;;3.33;0.60;;;;;;;;;;6062680;23;20022;-68
2022/12/30 09:00:07;;;;;;;2.97;0.60;;;;;;;;;;6071854;23;20482;-69
2022/12/30 09:02:36;;;;;;;2.28;0.30;;;;;;;;;;6059550;23;20077;-71
2022/12/30 09:05:04;;;;;;;3.20;0.43;;;;;;;;;;6078514;23;20042;-72
2022/12/30 09:07:32;;;;;;;3.15;0.47;;;;;;;;;;6063382;23;20050;-71
2022/12/30 09:10:19;;;;;;;2.80;0.20;;;;;;;;;;6068798;23;20385;-71
2022/12/30 09:12:47;;;;;;;3.88;0.50;;;;;;;;;;6064958;23;20392;-70
2022/12/30 09:15:20;;;;;;;2.55;0.35;;;;;;;;;;6072749;23;20026;-70
2022/12/30 09:17:49;;;;;;;4.20;0.43;;;;;;;;;;6071297;23;20056;-71
2022/12/30 09:20:17;;;;;;;7.07;0.40;;;;;;;;;;6062997;23;20323;-71
2022/12/30 09:22:51;;;;;;;2.72;0.40;;;;;;;;;;6063369;23;20046;-70
2022/12/30 09:25:18;;;;;;;3.22;0.63;;;;;;;;;;6065781;23;20014;-70
2022/12/30 09:27:46;;;;;;;1.85;0.30;;;;;;;;;;6061090;23;20070;-70
2022/12/30 09:30:14;;;;;;;3.80;0.40;;;;;;;;;;6047767;23;20365;-71
2022/12/30 09:32:41;;;;;;;2.20;0.25;;;;;;;;;;6059870;23;20069;-70
2022/12/30 09:35:10;;;;;;;2.50;0.38;;;;;;;;;;6072015;23;20050;-71
2022/12/30 09:37:38;;;;;;;3.33;0.50;;;;;;;;;;6068066;23;20416;-72
2022/12/30 09:40:06;;;;;;;2.00;0.20;;;;;;;;;;6070717;23;20014;-69
2022/12/30 09:45:24;;;;;;;2.28;0.30;;;;;;;;;;6062722;23;20069;-69
2022/12/30 09:47:53;;;;;;;1.35;0.20;;;;;;;;;;6072742;23;20042;-71
2022/12/30 09:50:27;;;;;;;1.70;0.20;;;;;;;;;;6063389;23;20357;-71
2022/12/30 09:52:57;;;;;;;1.60;0.30;;;;;;;;;;6068168;23;20024;-70
2022/12/30 09:55:27;;;;;;;2.10;0.20;;;;;;;;;;6068711;23;20041;-71
2022/12/30 09:57:57;;;;;;;1.63;0.20;;;;;;;;;;6055814;23;20018;-69
2022/12/30 10:00:25;;;;;;;2.22;0.20;;;;;;;;;;6071439;23;20049;-70
2022/12/30 10:02:57;;;;;;;2.80;0.40;;;;;;;;;;6035434;23;20019;-71
2022/12/30 10:05:32;;;;;;;1.65;0.20;;;;;;;;;;6077542;23;20053;-69
2022/12/30 10:08:02;;;;;;;2.97;0.30;;;;;;;;;;6060680;23;20026;-71
2022/12/30 10:10:35;;;;;;;2.20;0.30;;;;;;;;;;6065370;23;20484;-69
2022/12/30 10:13:05;;;;;;;1.15;0.20;;;;;;;;;;6071165;23;20088;-71
2022/12/30 10:15:37;;;;;;;2.38;0.22;;;;;;;;;;6061659;23;20057;-71
2022/12/30 10:18:18;;;;;;;1.50;0.20;;;;;;;;;;6072015;23;20018;-70
2022/12/30 10:20:52;;;;;;;2.27;0.20;;;;;;;;;;6053395;23;20015;-70
2022/12/30 10:23:29;;;;;;;2.13;0.20;;;;;;;;;;6064182;23;20501;-69
2022/12/30 10:26:02;;;;;;;1.80;0.30;;;;;;;;;;6072932;23;20501;-70
2022/12/30 10:28:32;;;;;;;2.80;0.40;;;;;;;;;;6071033;23;20098;-70
2022/12/30 10:30:59;;;;;;;2.03;0.40;;;;;;;;;;6039504;23;20398;-70
2022/12/30 10:33:27;;;;;;;1.97;0.30;;;;;;;;;;6069054;23;20019;-70
2022/12/30 10:36:00;;;;;;;2.33;0.20;;;;;;;;;;6067967;23;20018;-64
2022/12/30 10:38:30;;;;;;;2.90;0.40;;;;;;;;;;6067407;23;20015;-70
2022/12/30 10:41:01;;;;;;;2.72;0.30;;;;;;;;;;6033275;23;20021;-70
2022/12/30 10:43:39;;;;;;;1.92;0.25;;;;;;;;;;6074060;23;20025;-70
2022/12/30 10:46:17;;;;;;;2.93;0.30;;;;;;;;;;6072874;23;20106;-70
2022/12/30 10:49:01;;;;;;;2.85;0.20;;;;;;;;;;6050780;23;20712;-69
2022/12/30 10:51:30;;;;;;;3.03;0.30;;;;;;;;;;6074001;23;20019;-69
2022/12/30 10:53:59;;;;;;;3.28;0.30;;;;;;;;;;6065603;23;20379;-69
2022/12/30 10:56:27;;;;;;;3.55;0.38;;;;;;;;;;6063066;23;20093;-69
2022/12/30 10:58:57;;;;;;;2.37;0.30;;;;;;;;;;6068937;23;20128;-68
2022/12/30 11:01:29;;;;;;;3.03;0.40;;;;;;;;;;6062583;23;20014;-69
2022/12/30 11:03:58;;;;;;;5.05;0.50;;;;;;;;;;6070027;23;20089;-69
2022/12/30 11:06:27;;;;;;;4.65;0.32;;;;;;;;;;6059917;23;20718;-70
2022/12/30 11:09:17;;;;;;;5.60;0.50;;;;;;;;;;6070235;23;20539;-69
2022/12/30 11:15:21;;;;;;;5.35;0.70;;;;;;;;;;6073625;23;20279;-69
2022/12/30 11:17:50;;;;;;;3.63;0.50;;;;;;;;;;6072573;23;20018;-68
2022/12/30 11:20:28;;;;;;;4.13;0.70;;;;;;;;;;6068377;23;20042;-69
2022/12/30 11:22:57;;;;;;;2.70;0.40;;;;;;;;;;6065367;23;20061;-68
2022/12/30 11:25:27;;;;;;;2.97;0.33;;;;;;;;;;6068924;23;20109;-70
2022/12/30 11:27:56;;;;;;;2.67;0.40;;;;;;;;;;6037486;23;20353;-69
2022/12/30 11:30:25;;;;;;;3.25;0.30;;;;;;;;;;6074119;23;20481;-70
2022/12/30 11:32:54;;;;;;;4.22;0.50;;;;;;;;;;6053393;23;20030;-68
2022/12/30 11:35:36;;;;;;;6.55;0.50;;;;;;;;;;6071788;23;20677;-69
2022/12/30 11:38:06;;;;;;;4.60;0.50;;;;;;;;;;6064095;23;20064;-68
2022/12/30 11:40:36;;;;;;;3.95;0.50;;;;;;;;;;6064381;23;20050;-68
2022/12/30 11:43:05;;;;;;;5.57;0.40;;;;;;;;;;6070501;23;20014;-68
2022/12/30 11:45:33;;;;;;;9.10;0.80;;;;;;;;;;6040732;23;20594;-69
2022/12/30 11:48:00;;;;;;;6.35;0.98;;;;;;;;;;6072485;23;20054;-69
2022/12/30 11:50:28;;;;;;;3.87;0.40;;;;;;;;;;6064104;23;20018;-68
2022/12/30 11:52:59;;;;;;;4.60;0.55;;;;;;;;;;6071102;23;20014;-69
2022/12/30 11:55:27;;;;;;;3.83;0.50;;;;;;;;;;6044035;23;20022;-69
2022/12/30 11:57:57;;;;;;;2.25;0.45;;;;;;;;;;6060598;23;20018;-67
2022/12/30 12:00:36;;;;;;;2.50;0.30;;;;;;;;;;6073792;23;20032;-69
2022/12/30 12:03:05;;;;;;;3.43;0.50;;;;;;;;;;6062856;23;20114;-67
2022/12/30 12:05:42;;;;;;;1.85;0.30;;;;;;;;;;6079031;23;20069;-68
2022/12/30 12:08:14;;;;;;;2.15;0.30;;;;;;;;;;6074450;23;20064;-69
2022/12/30 12:10:42;;;;;;;1.73;0.32;;;;;;;;;;6061060;23;20090;-69
2022/12/30 12:13:17;;;;;;;2.30;0.38;;;;;;;;;;6072700;23;20360;-69
2022/12/30 12:15:46;;;;;;;2.57;0.40;;;;;;;;;;6037202;23;20042;-69
2022/12/30 12:18:18;;;;;;;2.22;0.38;;;;;;;;;;6072908;23;20119;-69
2022/12/30 12:20:55;;;;;;;1.67;0.38;;;;;;;;;;6068953;23;20312;-69
2022/12/30 12:23:26;;;;;;;2.85;0.40;;;;;;;;;;6037939;23;20014;-70
2022/12/30 12:25:59;;;;;;;2.22;0.40;;;;;;;;;;6070448;23;20069;-70
2022/12/30 12:28:32;;;;;;;1.70;0.30;;;;;;;;;;6069690;23;21091;-70
2022/12/30 12:31:13;;;;;;;2.40;0.30;;;;;;;;;;6067320;23;20329;-70
2022/12/30 12:33:41;;;;;;;2.50;0.30;;;;;;;;;;6070889;23;20061;-70
2022/12/30 12:36:14;;;;;;;2.15;0.50;;;;;;;;;;6067265;23;20015;-70
2022/12/30 12:38:47;;;;;;;2.55;0.40;;;;;;;;;;6067716;23;20103;-70
2022/12/30 12:41:21;;;;;;;2.33;0.50;;;;;;;;;;6070540;23;20406;-70
2022/12/30 12:43:58;;;;;;;3.05;0.80;;;;;;;;;;6065275;23;20054;-70
2022/12/30 12:46:33;;;;;;;4.03;0.40;;;;;;;;;;6072069;23;20296;-69
2022/12/30 12:49:08;;;;;;;1.63;0.22;;;;;;;;;;6059325;23;20029;-69
2022/12/30 12:51:46;;;;;;;7.38;0.95;;;;;;;;;;6064516;23;20403;-69
2022/12/30 12:54:22;;;;;;;3.53;0.50;;;;;;;;;;6074366;23;20050;-69
2022/12/30 12:57:14;;;;;;;3.95;0.40;;;;;;;;;;6065826;23;20074;-70
2022/12/30 12:59:52;;;;;;;3.70;0.32;;;;;;;;;;6068362;23;20089;-69
2022/12/30 13:02:40;;;;;;;1.90;0.30;;;;;;;;;;6073841;23;20014;-69
2022/12/30 13:05:23;;;;;;;5.07;0.50;;;;;;;;;;6078089;23;20217;-69
2022/12/30 13:07:54;;;;;;;2.23;0.30;;;;;;;;;;6063085;23;20085;-69
2022/12/30 13:10:44;;;;;;;3.53;0.57;;;;;;;;;;6057775;23;20030;-68
2022/12/30 13:13:33;;;;;;;2.90;0.60;;;;;;;;;;6072682;23;20028;-68
2022/12/30 13:16:05;;;;;;;5.80;0.93;;;;;;;;;;6064255;23;20038;-68
2022/12/30 13:18:34;;;;;;;3.05;0.40;;;;;;;;;;6063931;23;20054;-69
2022/12/30 13:21:02;;;;;;;4.00;0.60;;;;;;;;;;6076625;23;20014;-69
2022/12/30 13:23:33;;;;;;;6.82;1.17;;;;;;;;;;6059689;23;20093;-69
2022/12/30 13:26:05;;;;;;;2.65;0.30;;;;;;;;;;6074708;23;20663;-69
2022/12/30 13:28:34;;;;;;;4.22;0.50;;;;;;;;;;6075697;23;20022;-69
2022/12/30 13:31:13;;;;;;;3.08;0.47;;;;;;;;;;6058828;23;20411;-69
2022/12/30 13:33:47;;;;;;;4.73;0.57;;;;;;;;;;6063741;23;20030;-69
2022/12/30 13:36:17;;;;;;;5.85;0.75;;;;;;;;;;6072203;23;20426;-70
2022/12/30 13:38:57;;;;;;;1.70;0.30;;;;;;;;;;6069336;23;20074;-69
2022/12/30 13:41:27;;;;;;;4.93;0.40;;;;;;;;;;6076662;23;20050;-68
2022/12/30 13:43:56;;;;;;;3.47;0.60;;;;;;;;;;6062339;23;20630;-68
2022/12/30 13:46:26;;;;;;;3.53;0.50;;;;;;;;;;6069878;23;20134;-69
2022/12/30 13:48:54;;;;;;;2.95;0.60;;;;;;;;;;6061626;23;20419;-68
2022/12/30 13:51:23;;;;;;;5.93;0.70;;;;;;;;;;6074131;23;20442;-69
2022/12/30 13:53:53;;;;;;;4.10;0.70;;;;;;;;;;6065259;23;20454;-69
2022/12/30 13:56:32;;;;;;;4.55;0.60;;;;;;;;;;6062596;23;20019;-69
2022/12/30 13:59:00;;;;;;;3.47;0.43;;;;;;;;;;6066803;23;20553;-67
2022/12/30 14:01:35;;;;;;;3.85;0.55;;;;;;;;;;6062290;23;20069;-67
2022/12/30 14:04:21;;;;;;;3.70;0.50;;;;;;;;;;6068212;23;20022;-66
2022/12/30 14:06:49;;;;;;;3.88;0.40;;;;;;;;;;6069307;23;20053;-67
2022/12/30 14:09:18;;;;;;;2.58;0.40;;;;;;;;;;6063019;23;20053;-66
2022/12/30 14:12:08;;;;;;;5.17;0.50;;;;;;;;;;6072413;23;20097;-67
2022/12/30 14:14:36;;;;;;;4.97;0.60;;;;;;;;;;6071141;23;20501;-68
2022/12/30 14:17:06;;;;;;;4.93;0.68;;;;;;;;;;6067453;23;20517;-69
2022/12/30 14:19:49;;;;;;;5.53;0.63;;;;;;;;;;6069434;23;20327;-69
2022/12/30 14:22:36;;;;;;;3.75;0.55;;;;;;;;;;6067456;23;20489;-69
2022/12/30 14:25:04;;;;;;;4.83;0.60;;;;;;;;;;6063959;23;20049;-69
2022/12/30 14:27:41;;;;;;;2.80;0.70;;;;;;;;;;6070810;23;20042;-69
2022/12/30 14:30:17;;;;;;;3.55;0.60;;;;;;;;;;6070279;23;20335;-69
2022/12/30 14:32:46;;;;;;;3.53;0.60;;;;;;;;;;6062836;23;20414;-69
2022/12/30 14:35:16;;;;;;;7.72;1.02;;;;;;;;;;6069931;23;20050;-69
2022/12/30 14:37:44;;;;;;;4.40;0.60;;;;;;;;;;6065557;23;20094;-70
2022/12/30 14:40:30;;;;;;;6.07;0.77;;;;;;;;;;6071864;23;20046;-68
2022/12/30 14:42:58;;;;;;;5.80;0.60;;;;;;;;;;6074486;23;20049;-63
2022/12/30 14:45:27;;;;;;;4.97;0.70;;;;;;;;;;6061043;23;20018;-63
2022/12/30 14:47:56;;;;;;;3.67;0.40;;;;;;;;;;6068311;23;20026;-59
2022/12/30 14:50:28;;;;;;;3.40;0.57;;;;;;;;;;6056004;23;20945;-60
2022/12/30 14:52:58;;;;;;;2.30;0.50;;;;;;;;;;6070807;23;20023;-58
2022/12/30 14:55:27;;;;;;;1.70;0.30;;;;;;;;;;6063151;23;20018;-59
2022/12/30 14:57:58;;;;;;;2.20;0.60;;;;;;;;;;6035473;23;20129;-59
2022/12/30 15:00:28;;;;;;;3.13;0.40;;;;;;;;;;6069274;23;20074;-60
2022/12/30 15:02:57;;;;;;;2.43;0.30;;;;;;;;;;6062597;23;20037;-58
2022/12/30 15:05:34;;;;;;;1.77;0.30;;;;;;;;;;6076769;23;20084;-60
2022/12/30 15:08:03;;;;;;;1.48;0.30;;;;;;;;;;6063015;23;20019;-60
2022/12/30 15:10:34;;;;;;;1.30;0.20;;;;;;;;;;6063552;23;20450;-61
2022/12/30 15:13:07;;;;;;;2.90;0.40;;;;;;;;;;6067792;23;20026;-60
2022/12/30 15:15:34;;;;;;;2.13;0.40;;;;;;;;;;6063424;23;20041;-61
2022/12/30 15:52:09;;;;;;;3.90;0.50;;;;;;;;;;6138082;22;2158853;-63
2022/12/30 15:54:41;;;;;;;6.07;0.70;;;;;;;;;;6222453;23;20383;-64
2022/12/30 15:57:13;;;;;;;5.53;0.63;;;;;;;;;;6231203;23;20016;-64
2022/12/30 15:59:46;;;;;;;5.65;0.40;;;;;;;;;;6212165;23;20048;-63
2022/12/30 16:02:15;;;;;;;2.45;0.43;;;;;;;;;;6229314;23;20019;-63
2022/12/30 16:04:43;;;;;;;7.00;0.53;;;;;;;;;;6223739;23;20026;-64
2022/12/30 16:07:22;;;;;;;3.70;0.85;;;;;;;;;;6226979;23;20036;-64
2022/12/30 16:09:55;;;;;;;7.30;0.60;;;;;;;;;;6228027;23;20453;-64
2022/12/30 16:12:24;;;;;;;5.32;0.50;;;;;;;;;;6222244;23;20522;-63
2022/12/30 16:14:56;;;;;;;4.10;0.60;;;;;;;;;;6204091;23;20024;-64
2022/12/30 16:17:25;;;;;;;3.80;0.50;;;;;;;;;;6219126;23;20012;-64
2022/12/30 16:19:53;;;;;;;4.22;0.68;;;;;;;;;;6224876;23;20418;-63
2022/12/30 16:22:23;;;;;;;5.65;0.80;;;;;;;;;;6225461;23;20091;-64
2022/12/30 16:24:51;;;;;;;4.03;0.57;;;;;;;;;;6218463;23;20015;-63
2022/12/30 16:27:19;;;;;;;4.50;0.40;;;;;;;;;;6229174;23;20035;-63
2022/12/30 16:29:49;;;;;;;4.63;0.87;;;;;;;;;;6211527;23;20020;-64
2022/12/30 16:32:18;;;;;;;4.43;0.40;;;;;;;;;;6215011;23;20012;-63
2022/12/30 16:34:46;;;;;;;5.30;0.73;;;;;;;;;;6218631;23;20327;-63